Time;durP1;ratioP1;P1;durP2;ratioP2;P2;SDS_P1;SDS_P2;PMS_P1;PMS_P2;Temp;Humidity;BMP_temperature;BMP_pressure;BME280_temperature;BME280_humidity;BME280_pressure;Samples;Min_cycle;Max_cycle;Signal;HPM_P1;HPM_P2
2023/12/14 00:01:13;;;;;;;4.67;4.37;;;6.20;99.90;;;;;;5009826;28;20245;-59
2023/12/14 00:03:40;;;;;;;4.90;4.50;;;6.20;99.90;;;;;;5011518;28;20251;-58
2023/12/14 00:06:10;;;;;;;4.83;4.43;;;6.20;99.90;;;;;;5011571;28;20236;-60
2023/12/14 00:08:36;;;;;;;4.77;4.37;;;6.20;99.90;;;;;;5009072;28;20285;-58
2023/12/14 00:11:05;;;;;;;5.07;4.73;;;6.20;99.90;;;;;;5010355;28;20574;-59
2023/12/14 00:13:32;;;;;;;5.07;4.67;;;6.20;99.90;;;;;;5007762;28;21802;-58
2023/12/14 00:15:59;;;;;;;4.47;4.17;;;6.10;99.90;;;;;;5008054;28;20752;-58
2023/12/14 00:18:26;;;;;;;6.20;4.20;;;6.10;99.90;;;;;;5005536;28;20713;-58
2023/12/14 00:20:53;;;;;;;3.53;3.27;;;6.30;99.90;;;;;;5003832;28;20204;-58
2023/12/14 00:23:22;;;;;;;3.57;3.27;;;6.30;99.90;;;;;;5014241;28;20213;-58
2023/12/14 00:25:49;;;;;;;3.40;3.20;;;6.30;99.90;;;;;;5010751;28;20196;-58
2023/12/14 00:28:16;;;;;;;3.80;3.50;;;6.30;99.90;;;;;;5004304;28;20284;-58
2023/12/14 00:30:43;;;;;;;3.67;3.13;;;6.30;99.90;;;;;;5007950;28;20205;-59
2023/12/14 00:33:10;;;;;;;4.23;3.93;;;6.20;99.90;;;;;;5008154;28;20218;-59
2023/12/14 00:35:37;;;;;;;4.50;3.90;;;6.20;99.90;;;;;;5010105;28;20206;-58
2023/12/14 00:38:04;;;;;;;3.73;3.47;;;6.30;99.90;;;;;;5008340;28;20229;-58
2023/12/14 00:40:32;;;;;;;4.80;4.30;;;6.30;99.90;;;;;;5006150;28;20263;-58
2023/12/14 00:42:59;;;;;;;4.73;4.27;;;6.20;99.90;;;;;;5010483;28;20206;-59
2023/12/14 00:45:26;;;;;;;3.73;3.53;;;6.30;99.90;;;;;;5019032;28;20264;-58
2023/12/14 00:47:53;;;;;;;4.33;4.03;;;6.30;99.90;;;;;;5010694;28;20644;-59
2023/12/14 00:50:20;;;;;;;4.70;4.17;;;6.20;99.90;;;;;;5011212;28;20206;-58
2023/12/14 00:52:47;;;;;;;5.13;4.77;;;6.20;99.90;;;;;;5011516;28;20213;-58
2023/12/14 00:55:14;;;;;;;5.03;4.47;;;6.20;99.90;;;;;;5014410;28;20680;-58
2023/12/14 00:57:43;;;;;;;5.20;4.70;;;6.20;99.90;;;;;;5011892;28;20630;-58
2023/12/14 01:00:12;;;;;;;4.40;4.10;;;6.10;99.90;;;;;;5011245;28;20636;-58
2023/12/14 01:02:39;;;;;;;5.47;4.73;;;6.10;99.90;;;;;;5010107;28;20283;-58
2023/12/14 01:05:07;;;;;;;4.90;4.40;;;6.10;99.90;;;;;;5011268;28;20211;-58
2023/12/14 01:07:33;;;;;;;4.00;3.70;;;6.10;99.90;;;;;;5009372;28;20263;-58
2023/12/14 01:10:00;;;;;;;4.63;4.23;;;6.10;99.90;;;;;;5012178;28;20244;-58
2023/12/14 01:12:27;;;;;;;5.23;4.83;;;6.20;99.90;;;;;;5011384;28;20212;-59
2023/12/14 01:14:56;;;;;;;7.47;6.37;;;6.20;99.90;;;;;;5011226;28;20201;-58
2023/12/14 01:17:23;;;;;;;7.00;6.30;;;6.20;99.90;;;;;;5009811;28;20204;-58
2023/12/14 01:19:49;;;;;;;7.10;6.40;;;6.20;99.90;;;;;;5010882;28;20228;-59
2023/12/14 01:22:16;;;;;;;7.70;6.87;;;6.20;99.90;;;;;;5010331;28;20213;-58
2023/12/14 01:24:43;;;;;;;8.13;7.07;;;6.20;99.90;;;;;;5026486;28;20258;-58
2023/12/14 01:27:13;;;;;;;6.33;5.60;;;6.20;99.90;;;;;;5015607;28;20263;-58
2023/12/14 01:29:40;;;;;;;6.70;5.93;;;6.20;99.90;;;;;;5009071;28;20600;-58
2023/12/14 01:32:09;;;;;;;6.80;6.20;;;6.20;99.90;;;;;;5009185;28;20242;-60
2023/12/14 01:34:36;;;;;;;6.30;5.80;;;6.20;99.90;;;;;;5009356;28;20681;-58
2023/12/14 01:37:02;;;;;;;7.40;6.80;;;6.10;99.90;;;;;;5009760;28;20265;-59
2023/12/14 01:39:29;;;;;;;7.23;6.63;;;6.20;99.90;;;;;;5009819;28;20220;-58
2023/12/14 01:41:56;;;;;;;8.00;7.27;;;6.20;99.90;;;;;;5011176;28;20208;-58
2023/12/14 01:44:23;;;;;;;9.67;8.57;;;6.20;99.90;;;;;;5011175;28;20216;-58
2023/12/14 01:46:50;;;;;;;10.07;8.13;;;6.20;99.90;;;;;;5009213;28;20212;-58
2023/12/14 01:49:18;;;;;;;9.93;8.43;;;6.30;99.90;;;;;;5013049;28;20217;-58
2023/12/14 01:51:49;;;;;;;8.53;6.90;;;6.20;99.90;;;;;;5017378;28;20214;-58
2023/12/14 01:54:16;;;;;;;9.40;8.30;;;6.20;99.90;;;;;;5014794;28;20268;-59
2023/12/14 01:56:43;;;;;;;7.97;6.70;;;6.10;99.90;;;;;;5013913;28;20218;-58
2023/12/14 01:59:10;;;;;;;9.10;8.20;;;6.20;99.90;;;;;;5013214;28;20223;-58
2023/12/14 02:01:41;;;;;;;7.83;7.03;;;6.20;99.90;;;;;;5013648;28;20199;-58
2023/12/14 02:04:08;;;;;;;10.17;8.37;;;6.20;99.90;;;;;;5010425;28;20205;-58
2023/12/14 02:06:36;;;;;;;8.07;6.87;;;6.20;99.90;;;;;;5013083;28;20260;-58
2023/12/14 02:09:04;;;;;;;7.63;6.93;;;6.20;99.90;;;;;;5006273;28;20716;-58
2023/12/14 02:11:31;;;;;;;7.27;6.63;;;6.20;99.90;;;;;;5014363;28;20199;-58
2023/12/14 02:13:57;;;;;;;8.00;7.20;;;6.30;99.90;;;;;;5014353;28;20209;-58
2023/12/14 02:16:24;;;;;;;7.47;6.00;;;6.20;99.90;;;;;;5012932;28;20256;-58
2023/12/14 02:18:51;;;;;;;8.37;6.77;;;6.10;99.90;;;;;;5023688;28;20283;-58
2023/12/14 02:21:19;;;;;;;6.47;5.93;;;6.10;99.90;;;;;;5025337;28;20208;-58
2023/12/14 02:23:48;;;;;;;7.73;6.03;;;6.20;99.90;;;;;;5013626;28;20739;-58
2023/12/14 02:26:15;;;;;;;7.63;6.97;;;6.20;99.90;;;;;;5012618;28;20207;-58
2023/12/14 02:28:42;;;;;;;7.75;6.95;;;6.20;99.90;;;;;;5010094;28;20545;-64
2023/12/14 02:31:09;;;;;;;9.63;7.67;;;6.20;99.90;;;;;;5013586;28;20272;-62
2023/12/14 02:33:36;;;;;;;8.20;7.40;;;6.10;99.90;;;;;;5031575;28;20203;-62
2023/12/14 02:36:04;;;;;;;9.43;7.70;;;6.10;99.90;;;;;;5021900;28;20645;-63
2023/12/14 02:38:31;;;;;;;10.07;8.30;;;6.00;99.90;;;;;;5011926;28;20287;-64
2023/12/14 02:40:59;;;;;;;11.52;8.63;;;6.00;99.90;;;;;;5012493;28;20438;-61
2023/12/14 02:43:26;;;;;;;8.87;7.97;;;6.00;99.90;;;;;;5013731;28;20203;-60
2023/12/14 02:45:55;;;;;;;10.70;9.07;;;6.00;99.90;;;;;;5014318;28;20205;-60
2023/12/14 02:48:22;;;;;;;10.90;8.70;;;6.00;99.90;;;;;;5011550;28;20655;-61
2023/12/14 02:50:49;;;;;;;10.83;8.93;;;6.00;99.90;;;;;;5013880;28;20231;-60
2023/12/14 02:53:16;;;;;;;12.30;10.13;;;6.00;99.90;;;;;;5014119;28;20272;-61
2023/12/14 02:55:43;;;;;;;10.70;8.30;;;6.00;99.90;;;;;;5012861;28;20272;-60
2023/12/14 02:58:11;;;;;;;9.30;8.40;;;6.00;99.90;;;;;;5007431;28;20284;-61
2023/12/14 03:00:38;;;;;;;9.17;8.23;;;6.00;99.90;;;;;;5016295;28;20634;-60
2023/12/14 03:03:05;;;;;;;7.83;7.03;;;6.00;99.90;;;;;;5033735;28;20623;-61
2023/12/14 03:05:32;;;;;;;9.97;8.00;;;6.00;99.90;;;;;;5029163;28;20217;-60
2023/12/14 03:07:59;;;;;;;9.47;7.73;;;6.10;99.90;;;;;;5013564;28;20219;-61
2023/12/14 03:10:26;;;;;;;8.57;7.67;;;6.00;99.90;;;;;;5013005;28;20204;-60
2023/12/14 03:12:53;;;;;;;7.07;6.37;;;6.00;99.90;;;;;;5013768;28;20264;-60
2023/12/14 03:15:22;;;;;;;7.07;6.47;;;6.00;99.90;;;;;;5022323;28;20255;-60
2023/12/14 03:17:49;;;;;;;6.77;6.10;;;6.00;99.90;;;;;;5013098;28;20219;-61
2023/12/14 03:20:16;;;;;;;8.10;7.37;;;6.00;99.90;;;;;;5012233;28;20224;-60
2023/12/14 03:22:43;;;;;;;6.97;6.10;;;6.00;99.90;;;;;;5013437;28;20708;-60
2023/12/14 03:25:10;;;;;;;7.30;6.10;;;6.00;99.90;;;;;;5013505;28;20612;-61
2023/12/14 03:27:37;;;;;;;6.10;5.50;;;6.00;99.90;;;;;;5012036;28;20296;-60
2023/12/14 03:30:09;;;;;;;5.53;5.07;;;6.00;99.90;;;;;;5020921;28;20209;-60
2023/12/14 03:32:38;;;;;;;4.83;4.33;;;6.00;99.90;;;;;;5013386;28;20201;-60
2023/12/14 03:35:08;;;;;;;4.87;4.50;;;6.00;99.90;;;;;;5013195;28;20648;-60
2023/12/14 03:37:35;;;;;;;4.10;3.80;;;5.90;99.90;;;;;;5011442;28;20653;-60
2023/12/14 03:40:03;;;;;;;4.23;3.93;;;5.90;99.90;;;;;;5013117;28;20307;-60
2023/12/14 03:42:30;;;;;;;4.83;4.43;;;5.90;99.90;;;;;;5021893;28;20204;-60
2023/12/14 03:44:57;;;;;;;4.10;3.70;;;6.00;99.90;;;;;;5032930;28;20202;-60
2023/12/14 03:47:24;;;;;;;4.27;3.87;;;5.90;99.90;;;;;;5012855;28;20269;-60
2023/12/14 03:49:52;;;;;;;3.60;3.30;;;5.90;99.90;;;;;;5013149;28;20201;-60
2023/12/14 03:52:19;;;;;;;4.47;4.10;;;5.80;99.90;;;;;;5013075;28;20203;-61
2023/12/14 03:54:46;;;;;;;5.97;4.20;;;5.90;99.90;;;;;;5012948;28;20202;-61
2023/12/14 03:57:13;;;;;;;5.37;4.70;;;5.90;99.90;;;;;;5012462;28;20201;-60
2023/12/14 03:59:41;;;;;;;4.10;3.80;;;5.80;99.90;;;;;;5012328;28;20225;-61
2023/12/14 04:02:08;;;;;;;5.53;4.90;;;5.80;99.90;;;;;;5011876;28;20590;-61
2023/12/14 04:04:35;;;;;;;4.67;4.27;;;5.80;99.90;;;;;;5011767;28;20264;-60
2023/12/14 04:07:03;;;;;;;4.07;3.67;;;5.90;99.90;;;;;;5010528;28;20624;-60
2023/12/14 04:09:30;;;;;;;4.57;3.60;;;5.80;99.90;;;;;;5016186;28;20208;-61
2023/12/14 04:11:58;;;;;;;4.30;3.90;;;5.90;99.90;;;;;;5032355;28;20230;-60
2023/12/14 04:14:25;;;;;;;4.37;3.77;;;5.90;99.90;;;;;;5032378;28;20206;-60
2023/12/14 04:16:52;;;;;;;4.43;4.10;;;5.90;99.90;;;;;;5017630;28;20255;-61
2023/12/14 04:19:19;;;;;;;5.87;5.00;;;5.90;99.90;;;;;;5011762;28;20228;-60
2023/12/14 04:21:45;;;;;;;5.33;4.93;;;5.90;99.90;;;;;;5012357;28;20934;-60
2023/12/14 04:24:14;;;;;;;4.93;4.53;;;5.80;99.90;;;;;;5012411;28;20207;-60
2023/12/14 04:26:41;;;;;;;8.33;7.07;;;5.80;99.90;;;;;;5011143;28;20265;-61
2023/12/14 04:29:08;;;;;;;11.20;7.10;;;5.80;99.90;;;;;;5011732;28;20785;-61
2023/12/14 04:31:36;;;;;;;5.50;5.00;;;5.80;99.90;;;;;;5012201;28;20677;-60
2023/12/14 04:34:02;;;;;;;5.10;4.70;;;5.90;99.90;;;;;;5012260;28;20674;-60
2023/12/14 04:36:29;;;;;;;4.70;4.23;;;5.90;99.90;;;;;;5008503;28;20208;-60
2023/12/14 04:38:56;;;;;;;5.10;4.60;;;5.80;99.90;;;;;;5011194;28;20233;-60
2023/12/14 04:41:25;;;;;;;4.23;3.70;;;5.80;99.90;;;;;;5012107;28;20224;-60
2023/12/14 04:43:52;;;;;;;4.97;4.53;;;5.80;99.90;;;;;;5030723;28;20200;-60
2023/12/14 04:46:19;;;;;;;3.80;3.53;;;5.70;99.90;;;;;;5020044;28;20211;-60
2023/12/14 04:48:46;;;;;;;4.77;4.33;;;5.80;99.90;;;;;;5011572;28;20282;-60
2023/12/14 04:51:13;;;;;;;5.30;3.87;;;5.80;99.90;;;;;;5012177;28;20198;-60
2023/12/14 04:53:40;;;;;;;4.13;3.70;;;5.70;99.90;;;;;;5017300;28;20227;-60
2023/12/14 04:56:12;;;;;;;3.13;2.80;;;5.70;99.90;;;;;;5021090;28;20210;-60
2023/12/14 04:58:40;;;;;;;3.83;3.53;;;5.70;99.90;;;;;;5010330;28;20317;-60
2023/12/14 05:01:07;;;;;;;3.10;2.90;;;5.70;99.90;;;;;;5011776;28;20714;-60
2023/12/14 05:03:35;;;;;;;1.93;1.83;;;5.70;99.90;;;;;;5011862;28;20667;-60
2023/12/14 05:06:02;;;;;;;2.43;2.23;;;5.70;99.90;;;;;;5011063;28;20212;-60
2023/12/14 05:08:29;;;;;;;2.03;1.93;;;5.70;99.90;;;;;;5016834;28;20218;-60
2023/12/14 05:10:56;;;;;;;4.27;1.57;;;5.70;99.90;;;;;;5011502;28;20254;-60
2023/12/14 05:13:23;;;;;;;2.10;2.00;;;5.70;99.90;;;;;;5008821;28;20202;-60
2023/12/14 05:15:52;;;;;;;1.73;1.63;;;5.70;99.90;;;;;;5011556;28;20201;-60
2023/12/14 05:18:19;;;;;;;3.00;1.90;;;5.70;99.90;;;;;;5010762;28;20234;-60
2023/12/14 05:20:45;;;;;;;3.43;1.83;;;5.70;99.90;;;;;;5011254;28;20704;-60
2023/12/14 05:23:12;;;;;;;1.73;1.63;;;5.70;99.90;;;;;;5011374;28;20680;-60
2023/12/14 05:25:39;;;;;;;1.77;1.63;;;5.60;99.90;;;;;;5015432;28;20204;-60
2023/12/14 05:28:06;;;;;;;1.60;1.50;;;5.60;99.90;;;;;;5011868;28;20232;-60
2023/12/14 05:30:33;;;;;;;3.67;2.07;;;5.60;99.90;;;;;;5015227;28;20662;-60
2023/12/14 05:33:02;;;;;;;3.10;2.80;;;5.60;99.90;;;;;;5007198;28;20212;-60
2023/12/14 05:35:29;;;;;;;3.70;2.70;;;5.60;99.90;;;;;;5014550;28;20283;-60
2023/12/14 05:37:56;;;;;;;2.93;2.73;;;5.60;99.90;;;;;;5014395;28;20232;-60
2023/12/14 05:40:23;;;;;;;2.13;1.90;;;5.60;99.90;;;;;;5015916;28;20251;-60
2023/12/14 05:42:51;;;;;;;2.03;1.93;;;5.60;99.90;;;;;;5014814;28;20579;-60
2023/12/14 05:45:18;;;;;;;1.60;1.50;;;5.60;99.90;;;;;;5014844;28;20205;-60
2023/12/14 05:47:45;;;;;;;1.70;1.60;;;5.60;99.90;;;;;;5014343;28;20687;-60
2023/12/14 05:50:14;;;;;;;1.10;1.00;;;5.60;99.90;;;;;;5014772;28;20204;-60
2023/12/14 05:52:41;;;;;;;1.57;1.47;;;5.60;99.90;;;;;;5012923;28;20256;-60
2023/12/14 05:55:10;;;;;;;2.80;1.40;;;5.60;99.90;;;;;;5010321;28;20251;-60
2023/12/14 05:57:37;;;;;;;1.63;1.53;;;5.60;99.90;;;;;;5004106;28;20210;-60
2023/12/14 06:00:05;;;;;;;2.67;2.47;;;5.60;99.90;;;;;;5008080;28;20289;-60
2023/12/14 06:02:32;;;;;;;1.80;1.70;;;5.60;99.90;;;;;;5012342;28;20205;-61
2023/12/14 06:04:59;;;;;;;1.70;1.20;;;5.60;99.90;;;;;;5012883;28;20213;-60
2023/12/14 06:07:27;;;;;;;1.57;1.40;;;5.60;99.90;;;;;;5011834;28;20243;-60
2023/12/14 06:09:54;;;;;;;1.43;1.33;;;5.60;99.90;;;;;;5014817;28;20289;-60
2023/12/14 06:12:21;;;;;;;1.90;1.67;;;5.50;99.90;;;;;;5013069;28;20206;-60
2023/12/14 06:14:49;;;;;;;1.83;1.50;;;5.50;99.90;;;;;;5013126;28;20232;-60
2023/12/14 06:17:16;;;;;;;2.10;2.00;;;5.50;99.90;;;;;;5013687;28;20205;-60
2023/12/14 06:19:43;;;;;;;1.70;1.70;;;5.50;99.90;;;;;;5012757;28;20281;-60
2023/12/14 06:22:10;;;;;;;2.07;1.97;;;5.50;99.90;;;;;;5010069;28;20227;-60
2023/12/14 06:24:38;;;;;;;3.17;2.50;;;5.50;99.90;;;;;;5011587;28;20215;-60
2023/12/14 06:27:05;;;;;;;2.63;2.43;;;5.50;99.90;;;;;;5013797;28;20265;-60
2023/12/14 06:29:32;;;;;;;3.13;2.83;;;5.50;99.90;;;;;;5013203;28;20272;-60
2023/12/14 06:31:59;;;;;;;3.03;2.73;;;5.50;99.90;;;;;;5014171;28;20197;-60
2023/12/14 06:34:26;;;;;;;2.67;2.47;;;5.50;99.90;;;;;;5014321;28;20204;-60
2023/12/14 06:36:57;;;;;;;4.73;2.17;;;5.50;99.90;;;;;;5013897;28;20680;-60
2023/12/14 06:39:24;;;;;;;4.33;2.73;;;5.50;99.90;;;;;;5012371;28;20289;-60
2023/12/14 06:41:55;;;;;;;4.07;2.67;;;5.50;99.90;;;;;;5013446;28;20225;-60
2023/12/14 06:44:22;;;;;;;5.90;3.47;;;5.50;99.90;;;;;;5012399;28;20201;-60
2023/12/14 06:46:50;;;;;;;4.77;2.67;;;5.50;99.90;;;;;;5013975;28;20271;-60
2023/12/14 06:49:16;;;;;;;4.47;3.03;;;5.50;99.90;;;;;;5013670;28;20237;-60
2023/12/14 06:51:47;;;;;;;6.37;2.83;;;5.50;99.90;;;;;;5014124;28;20276;-61
2023/12/14 06:54:14;;;;;;;3.70;2.60;;;5.60;99.90;;;;;;5012506;28;20221;-60
2023/12/14 06:56:41;;;;;;;2.17;1.97;;;5.50;99.90;;;;;;5013694;28;20649;-60
2023/12/14 06:59:09;;;;;;;2.33;2.13;;;5.50;99.90;;;;;;5011435;28;20705;-60
2023/12/14 07:01:36;;;;;;;2.10;2.00;;;5.60;99.90;;;;;;5013404;28;20224;-60
2023/12/14 07:04:03;;;;;;;4.33;2.47;;;5.50;99.90;;;;;;5013456;28;20203;-60
2023/12/14 07:06:30;;;;;;;3.03;2.73;;;5.50;99.90;;;;;;5013549;28;20251;-60
2023/12/14 07:08:57;;;;;;;4.17;3.63;;;5.50;99.90;;;;;;5011430;28;20250;-61
2023/12/14 07:11:24;;;;;;;4.37;3.57;;;5.50;99.90;;;;;;5013401;28;20653;-60
2023/12/14 07:13:51;;;;;;;4.03;3.63;;;5.50;99.90;;;;;;5013208;28;20240;-60
2023/12/14 07:16:19;;;;;;;3.70;3.43;;;5.50;99.90;;;;;;5012268;28;20210;-60
2023/12/14 07:18:46;;;;;;;5.20;4.10;;;5.60;99.90;;;;;;5012895;28;20228;-60
2023/12/14 07:21:13;;;;;;;3.90;3.47;;;5.60;99.90;;;;;;5013237;28;20655;-60
2023/12/14 07:23:40;;;;;;;4.27;3.87;;;5.60;99.90;;;;;;5011960;28;20668;-60
2023/12/14 07:26:07;;;;;;;3.10;2.90;;;5.80;99.90;;;;;;5012137;28;20225;-60
2023/12/14 07:28:34;;;;;;;3.10;2.73;;;5.70;99.90;;;;;;5008020;28;20709;-60
2023/12/14 07:31:01;;;;;;;2.43;2.33;;;5.80;99.90;;;;;;5009161;28;20202;-60
2023/12/14 07:33:29;;;;;;;2.80;2.60;;;5.70;99.90;;;;;;5012389;28;20261;-60
2023/12/14 07:35:56;;;;;;;6.03;2.97;;;5.70;99.90;;;;;;5012627;28;20268;-60
2023/12/14 07:38:23;;;;;;;3.17;2.57;;;5.70;99.90;;;;;;5011180;28;20233;-60
2023/12/14 07:40:53;;;;;;;3.07;2.83;;;5.70;99.90;;;;;;5012733;28;20217;-60
2023/12/14 07:43:21;;;;;;;3.30;2.40;;;5.60;99.90;;;;;;5009105;28;20325;-60
2023/12/14 07:45:48;;;;;;;2.80;2.60;;;5.60;99.90;;;;;;5008736;28;20232;-61
2023/12/14 07:48:15;;;;;;;3.83;3.37;;;5.50;99.90;;;;;;5010874;28;20225;-60
2023/12/14 07:50:44;;;;;;;3.97;3.67;;;5.60;99.90;;;;;;5010421;28;20199;-60
2023/12/14 07:53:10;;;;;;;3.97;3.67;;;5.50;99.90;;;;;;5011832;28;20206;-60
2023/12/14 07:55:37;;;;;;;4.50;4.10;;;5.50;99.90;;;;;;5011786;28;20211;-60
2023/12/14 07:58:04;;;;;;;5.63;5.03;;;5.50;99.90;;;;;;5009509;28;20607;-60
2023/12/14 08:00:31;;;;;;;5.63;5.10;;;5.50;99.90;;;;;;5012247;28;20225;-60
2023/12/14 08:02:58;;;;;;;4.90;4.27;;;5.50;99.90;;;;;;5012007;28;20215;-60
2023/12/14 08:05:25;;;;;;;5.03;4.43;;;5.60;99.90;;;;;;5007451;28;20207;-61
2023/12/14 08:07:53;;;;;;;4.60;3.90;;;5.50;99.90;;;;;;5001532;28;20272;-61
2023/12/14 08:10:20;;;;;;;3.97;3.67;;;5.50;99.90;;;;;;5006438;28;20205;-60
2023/12/14 08:12:48;;;;;;;3.00;2.80;;;5.50;99.90;;;;;;5010111;28;20197;-60
2023/12/14 08:15:16;;;;;;;5.43;3.43;;;5.60;99.90;;;;;;5012123;28;20209;-60
2023/12/14 08:17:42;;;;;;;3.57;3.27;;;5.70;99.90;;;;;;5010873;28;20568;-60
2023/12/14 08:20:12;;;;;;;2.93;2.70;;;5.70;99.90;;;;;;5004498;28;20207;-60
2023/12/14 08:22:43;;;;;;;3.93;2.87;;;5.70;99.90;;;;;;5008463;28;20228;-60
2023/12/14 08:25:13;;;;;;;2.87;2.47;;;5.80;99.90;;;;;;5012382;28;20211;-60
2023/12/14 08:27:40;;;;;;;2.97;2.70;;;5.80;99.90;;;;;;5011854;28;20263;-60
2023/12/14 08:30:08;;;;;;;2.27;2.07;;;5.80;99.90;;;;;;5010628;28;20280;-60
2023/12/14 08:32:35;;;;;;;2.37;2.17;;;5.70;99.90;;;;;;5006778;28;20193;-60
2023/12/14 08:35:02;;;;;;;2.30;2.10;;;5.70;99.90;;;;;;5007179;28;20224;-60
2023/12/14 08:37:29;;;;;;;2.47;2.37;;;5.80;99.90;;;;;;5008847;28;20215;-60
2023/12/14 08:39:56;;;;;;;3.77;2.70;;;5.80;99.90;;;;;;5008635;28;20205;-60
2023/12/14 08:42:24;;;;;;;2.30;2.10;;;5.90;99.90;;;;;;5007829;28;20316;-61
2023/12/14 08:44:51;;;;;;;1.97;1.87;;;5.80;99.90;;;;;;5010452;28;20649;-60
2023/12/14 08:47:18;;;;;;;2.57;1.80;;;5.80;99.90;;;;;;5009582;28;20208;-61
2023/12/14 08:49:45;;;;;;;3.10;2.10;;;5.80;99.90;;;;;;5011866;28;20229;-60
2023/12/14 08:52:14;;;;;;;3.83;1.80;;;5.70;99.90;;;;;;5010945;28;20201;-61
2023/12/14 08:54:43;;;;;;;2.63;1.40;;;5.70;99.90;;;;;;5013173;28;20204;-61
2023/12/14 08:57:10;;;;;;;5.03;2.00;;;5.70;99.90;;;;;;5004240;28;20209;-61
2023/12/14 08:59:38;;;;;;;2.57;2.07;;;5.80;99.90;;;;;;5011190;28;20276;-60
2023/12/14 09:02:05;;;;;;;1.63;1.53;;;5.80;99.90;;;;;;5010700;28;20217;-60
2023/12/14 09:04:35;;;;;;;0.93;0.90;;;5.90;99.90;;;;;;5010301;28;20207;-61
2023/12/14 09:07:03;;;;;;;0.93;0.83;;;5.90;99.90;;;;;;5012517;28;20197;-60
2023/12/14 09:09:30;;;;;;;3.27;0.97;;;5.90;99.90;;;;;;5007836;28;20223;-60
2023/12/14 09:11:58;;;;;;;2.60;1.20;;;5.90;99.90;;;;;;5009599;28;20676;-60
2023/12/14 09:14:24;;;;;;;1.10;1.10;;;5.90;99.90;;;;;;5010036;28;20582;-60
2023/12/14 09:16:53;;;;;;;1.33;1.20;;;5.90;99.90;;;;;;5008417;28;20203;-61
2023/12/14 09:19:20;;;;;;;1.17;1.17;;;6.00;99.90;;;;;;5009936;28;20502;-61
2023/12/14 09:21:47;;;;;;;1.57;1.47;;;6.00;99.90;;;;;;5009282;28;20604;-59
2023/12/14 09:24:14;;;;;;;1.80;1.47;;;6.00;99.90;;;;;;5013660;28;20688;-59
2023/12/14 09:26:40;;;;;;;1.20;1.13;;;5.90;99.90;;;;;;5012810;28;20580;-59
2023/12/14 09:29:07;;;;;;;1.70;1.60;;;5.90;99.90;;;;;;5009418;28;20239;-59
2023/12/14 09:31:34;;;;;;;3.90;1.70;;;5.90;99.90;;;;;;5010706;28;20672;-60
2023/12/14 09:34:03;;;;;;;1.70;1.60;;;5.90;99.90;;;;;;5009645;28;20693;-59
2023/12/14 09:36:30;;;;;;;1.33;1.33;;;5.90;99.90;;;;;;5010286;28;20202;-59
2023/12/14 09:38:56;;;;;;;1.60;1.53;;;6.00;99.90;;;;;;5010526;28;20236;-59
2023/12/14 09:41:23;;;;;;;1.43;1.33;;;6.00;99.90;;;;;;5005684;28;20225;-59
2023/12/14 09:43:51;;;;;;;1.93;1.83;;;6.10;99.90;;;;;;5009570;28;20254;-59
2023/12/14 09:46:19;;;;;;;2.30;1.87;;;6.10;99.90;;;;;;5005082;28;20205;-59
2023/12/14 09:48:47;;;;;;;1.20;1.07;;;6.10;99.90;;;;;;5001925;28;20225;-59
2023/12/14 09:51:16;;;;;;;1.80;1.30;;;6.10;99.90;;;;;;5011090;28;20205;-59
2023/12/14 09:53:44;;;;;;;1.30;1.23;;;6.20;99.90;;;;;;5011127;28;20208;-59
2023/12/14 09:56:11;;;;;;;1.10;1.10;;;6.20;99.90;;;;;;5002978;28;20206;-59
2023/12/14 09:58:38;;;;;;;1.80;1.70;;;6.30;99.90;;;;;;5012225;28;20229;-59
2023/12/14 10:01:23;;;;;;;1.63;1.53;;;6.30;99.90;;;;;;5009057;28;20323;-59
2023/12/14 10:03:50;;;;;;;2.00;1.43;;;6.30;99.90;;;;;;5011955;28;20200;-59
2023/12/14 10:06:19;;;;;;;1.53;1.40;;;6.30;99.90;;;;;;5010158;28;20270;-59
2023/12/14 10:08:56;;;;;;;2.07;1.97;;;6.30;99.90;;;;;;5008901;28;20224;-59
2023/12/14 10:11:23;;;;;;;1.80;1.67;;;6.30;99.90;;;;;;5013908;28;20625;-59
2023/12/14 10:13:50;;;;;;;1.70;1.40;;;6.30;99.90;;;;;;5013624;28;20209;-59
2023/12/14 10:16:30;;;;;;;1.00;1.00;;;6.30;99.90;;;;;;5013391;28;20209;-59
2023/12/14 10:18:58;;;;;;;1.73;1.63;;;6.30;99.90;;;;;;5010499;28;20225;-59
2023/12/14 10:21:27;;;;;;;2.17;2.00;;;6.20;99.90;;;;;;5011205;28;20228;-63
2023/12/14 10:23:57;;;;;;;1.80;1.70;;;6.20;99.90;;;;;;5003804;28;21148;-60
2023/12/14 10:26:25;;;;;;;1.70;1.60;;;6.20;99.90;;;;;;5012292;28;20201;-60
2023/12/14 10:28:53;;;;;;;2.50;2.07;;;6.20;99.90;;;;;;5013427;28;20230;-60
2023/12/14 10:31:21;;;;;;;4.50;2.20;;;6.20;99.90;;;;;;5011465;28;20231;-60
2023/12/14 10:33:48;;;;;;;2.93;2.73;;;6.20;99.90;;;;;;5011378;28;20201;-60
2023/12/14 10:36:19;;;;;;;3.17;2.93;;;6.20;99.90;;;;;;5009609;28;20684;-60
2023/12/14 10:38:52;;;;;;;3.93;3.53;;;6.20;99.90;;;;;;5010385;28;20655;-60
2023/12/14 10:41:22;;;;;;;4.13;3.60;;;6.30;99.90;;;;;;5012796;28;20633;-60
2023/12/14 10:43:51;;;;;;;7.00;3.37;;;6.30;99.90;;;;;;5009168;28;20681;-60
2023/12/14 10:46:20;;;;;;;2.80;2.63;;;6.30;99.90;;;;;;5013041;28;20214;-60
2023/12/14 10:48:50;;;;;;;2.67;1.93;;;6.30;99.90;;;;;;5012603;28;20260;-60
2023/12/14 10:51:19;;;;;;;2.00;1.90;;;6.30;99.90;;;;;;5012307;28;20212;-60
2023/12/14 10:53:49;;;;;;;2.30;2.10;;;6.30;99.90;;;;;;5013127;28;20208;-60
2023/12/14 10:56:18;;;;;;;3.27;2.63;;;6.30;99.90;;;;;;5013216;28;20204;-60
2023/12/14 10:58:49;;;;;;;3.63;2.33;;;6.20;99.90;;;;;;5012584;28;20221;-60
2023/12/14 11:01:17;;;;;;;1.93;1.83;;;6.30;99.90;;;;;;5008955;28;20253;-60
2023/12/14 11:03:45;;;;;;;2.80;2.60;;;6.30;99.90;;;;;;5004811;28;20781;-60
2023/12/14 11:06:31;;;;;;;2.83;2.63;;;6.30;99.90;;;;;;5012735;28;20241;-60
2023/12/14 11:09:05;;;;;;;3.23;1.73;;;6.40;99.90;;;;;;5011702;28;20225;-60
2023/12/14 11:11:41;;;;;;;2.13;1.63;;;6.50;99.90;;;;;;5013380;28;20256;-60
2023/12/14 11:14:09;;;;;;;1.93;1.67;;;6.50;99.90;;;;;;5012813;28;20207;-60
2023/12/14 11:16:44;;;;;;;2.10;1.30;;;6.60;99.90;;;;;;5012980;28;20260;-60
2023/12/14 11:19:29;;;;;;;1.33;1.10;;;6.70;99.90;;;;;;5011350;28;20224;-59
2023/12/14 11:22:25;;;;;;;2.30;0.93;;;6.60;99.90;;;;;;5012122;28;20284;-60
2023/12/14 11:24:55;;;;;;;1.13;1.13;;;6.50;99.90;;;;;;5004013;28;20663;-60
2023/12/14 11:27:27;;;;;;;1.43;1.20;;;6.40;99.90;;;;;;5010841;28;20201;-59
2023/12/14 11:29:55;;;;;;;1.90;1.70;;;6.40;99.90;;;;;;5012973;28;20231;-59
2023/12/14 11:32:21;;;;;;;3.67;1.97;;;6.40;99.90;;;;;;5006650;28;20738;-60
2023/12/14 11:34:48;;;;;;;2.27;2.10;;;6.40;99.90;;;;;;5012685;28;20853;-59
2023/12/14 11:37:16;;;;;;;4.57;3.43;;;6.30;99.90;;;;;;5003591;28;20252;-60
2023/12/14 11:39:43;;;;;;;3.97;2.80;;;6.30;99.90;;;;;;5013229;28;20223;-60
2023/12/14 11:42:16;;;;;;;4.40;4.10;;;6.30;99.90;;;;;;5003088;28;20308;-59
2023/12/14 11:44:43;;;;;;;8.63;5.13;;;6.40;99.90;;;;;;5009725;28;20642;-60
2023/12/14 11:47:10;;;;;;;4.60;4.20;;;6.40;99.90;;;;;;5012927;28;20200;-59
2023/12/14 11:49:37;;;;;;;6.50;4.63;;;6.40;99.90;;;;;;5012354;28;20635;-59
2023/12/14 11:52:05;;;;;;;4.93;2.17;;;6.50;99.90;;;;;;5015186;28;20196;-60
2023/12/14 11:54:32;;;;;;;2.87;1.30;;;6.60;99.90;;;;;;5008859;28;20728;-60
2023/12/14 11:57:03;;;;;;;2.10;2.00;;;6.60;99.90;;;;;;5008720;28;20205;-60
2023/12/14 11:59:33;;;;;;;1.73;1.43;;;6.70;99.90;;;;;;5008171;28;20221;-60
2023/12/14 12:02:01;;;;;;;1.67;1.47;;;6.70;99.90;;;;;;5010940;28;20304;-60
2023/12/14 12:04:28;;;;;;;3.50;1.40;;;6.60;99.90;;;;;;5009769;28;20274;-59
2023/12/14 12:07:03;;;;;;;2.97;1.50;;;6.60;99.90;;;;;;5011646;28;20209;-60
2023/12/14 12:09:37;;;;;;;2.93;1.93;;;6.60;99.90;;;;;;5010451;28;20229;-60
2023/12/14 12:12:07;;;;;;;4.27;2.50;;;6.60;99.90;;;;;;5011392;28;20279;-60
2023/12/14 12:14:35;;;;;;;3.75;1.90;;;6.60;99.90;;;;;;5010599;28;20439;-60
2023/12/14 12:17:04;;;;;;;4.00;2.67;;;6.70;99.90;;;;;;5010416;28;20305;-62
2023/12/14 12:19:31;;;;;;;1.50;1.40;;;6.80;99.90;;;;;;5008774;28;20229;-64
2023/12/14 12:21:58;;;;;;;3.00;1.70;;;6.70;99.90;;;;;;5008317;28;20258;-62
2023/12/14 12:24:25;;;;;;;3.27;1.80;;;6.70;99.90;;;;;;5008184;28;20200;-61
2023/12/14 12:26:52;;;;;;;2.13;1.90;;;6.80;99.90;;;;;;5011273;28;20284;-62
2023/12/14 12:29:19;;;;;;;0.97;0.90;;;6.80;99.90;;;;;;5009672;28;20717;-60
2023/12/14 12:31:51;;;;;;;2.13;1.13;;;6.70;99.90;;;;;;5011176;28;20268;-60
2023/12/14 12:34:18;;;;;;;2.13;0.77;;;6.80;99.90;;;;;;5007717;28;20676;-60
2023/12/14 12:36:50;;;;;;;0.90;0.90;;;6.80;99.90;;;;;;5008864;28;20264;-61
2023/12/14 12:39:16;;;;;;;1.10;1.10;;;6.80;99.90;;;;;;5005556;28;20220;-61
2023/12/14 12:41:47;;;;;;;1.17;1.07;;;6.80;99.90;;;;;;5010852;28;20201;-61
2023/12/14 12:44:14;;;;;;;1.20;1.13;;;6.80;99.90;;;;;;5008889;28;20232;-60
2023/12/14 12:46:41;;;;;;;1.50;0.80;;;6.80;99.90;;;;;;5010029;28;20201;-61
2023/12/14 12:49:10;;;;;;;1.03;0.80;;;6.90;99.90;;;;;;5010550;28;20328;-62
2023/12/14 12:51:36;;;;;;;0.70;0.70;;;6.90;99.90;;;;;;5007015;28;20205;-61
2023/12/14 12:54:04;;;;;;;0.90;0.90;;;6.90;99.90;;;;;;5008592;28;20201;-61
2023/12/14 12:56:30;;;;;;;1.20;1.10;;;7.00;99.90;;;;;;5010424;28;20216;-60
2023/12/14 12:58:58;;;;;;;1.33;1.10;;;7.00;99.90;;;;;;5010529;28;20286;-60
2023/12/14 13:01:25;;;;;;;1.80;1.70;;;7.00;99.90;;;;;;5010881;28;20577;-60